Time;durP1;ratioP1;P1;durP2;ratioP2;P2;SDS_P1;SDS_P2;PMS_P1;PMS_P2;Temp;Humidity;BMP_temperature;BMP_pressure;BME280_temperature;BME280_humidity;BME280_pressure;Samples;Min_cycle;Max_cycle;Signal;HPM_P1;HPM_P2
2021/08/16 00:08:15;;;;;;;8.05;4.63;;;;;;;;;;5118374;27;1455033;-96
2021/08/16 00:10:45;;;;;;;5.38;4.82;;;;;;;;;;5150253;27;20179;-93
2021/08/16 00:13:12;;;;;;;4.70;4.30;;;;;;;;;;5148267;27;20248;-94
2021/08/16 00:15:39;;;;;;;4.78;4.30;;;;;;;;;;5141839;27;20202;-90
2021/08/16 00:18:05;;;;;;;6.25;4.95;;;;;;;;;;5142637;27;20192;-92
2021/08/16 00:20:32;;;;;;;6.40;4.43;;;;;;;;;;5160656;27;20172;-91
2021/08/16 00:22:59;;;;;;;4.40;4.00;;;;;;;;;;5140674;27;20200;-92
2021/08/16 00:25:27;;;;;;;8.35;3.95;;;;;;;;;;5141237;27;20176;-91
2021/08/16 00:27:54;;;;;;;4.63;4.10;;;;;;;;;;5141057;27;20280;-94
2021/08/16 00:30:21;;;;;;;5.55;4.60;;;;;;;;;;5159747;27;20658;-93
2021/08/16 00:32:49;;;;;;;4.68;4.00;;;;;;;;;;5141134;27;20191;-92
2021/08/16 00:35:15;;;;;;;4.97;4.00;;;;;;;;;;5141119;27;20190;-92
2021/08/16 00:37:44;;;;;;;6.57;4.53;;;;;;;;;;5140111;27;20687;-93
2021/08/16 00:40:12;;;;;;;6.10;4.03;;;;;;;;;;5139995;27;20195;-93
2021/08/16 00:42:40;;;;;;;4.82;4.35;;;;;;;;;;5139362;27;20199;-93
2021/08/16 00:45:07;;;;;;;5.18;4.45;;;;;;;;;;5159307;27;20186;-91
2021/08/16 00:47:34;;;;;;;5.95;4.30;;;;;;;;;;5140441;27;20211;-92
2021/08/16 00:50:01;;;;;;;6.88;4.35;;;;;;;;;;5135713;28;20220;-93
2021/08/16 00:52:28;;;;;;;4.95;4.50;;;;;;;;;;5119175;28;20189;-91
2021/08/16 00:54:55;;;;;;;6.32;4.53;;;;;;;;;;5119295;28;20214;-92
2021/08/16 00:57:22;;;;;;;6.97;4.40;;;;;;;;;;5119187;28;20184;-91
2021/08/16 00:59:50;;;;;;;4.43;4.07;;;;;;;;;;5137604;28;20188;-93
2021/08/16 01:02:17;;;;;;;4.60;4.20;;;;;;;;;;5136633;28;20707;-92
2021/08/16 01:04:44;;;;;;;5.65;4.47;;;;;;;;;;5118836;28;20701;-91
2021/08/16 01:07:10;;;;;;;4.47;4.00;;;;;;;;;;5114739;28;20700;-91
2021/08/16 01:09:37;;;;;;;5.75;4.35;;;;;;;;;;5115172;28;20250;-91
2021/08/16 01:12:04;;;;;;;6.35;4.60;;;;;;;;;;5116413;28;20181;-91
2021/08/16 01:14:31;;;;;;;4.88;4.30;;;;;;;;;;5114429;28;20205;-89
2021/08/16 01:16:59;;;;;;;7.78;5.00;;;;;;;;;;5115270;28;20197;-92
2021/08/16 01:19:26;;;;;;;4.85;4.45;;;;;;;;;;5101451;28;20726;-91
2021/08/16 01:21:52;;;;;;;6.40;4.78;;;;;;;;;;5101040;28;20198;-92
2021/08/16 01:24:19;;;;;;;5.30;4.80;;;;;;;;;;5102018;28;20178;-90
2021/08/16 01:26:47;;;;;;;8.27;4.85;;;;;;;;;;5099917;28;20629;-91
2021/08/16 01:29:18;;;;;;;6.45;4.80;;;;;;;;;;5100577;28;20202;-91
2021/08/16 01:31:45;;;;;;;8.20;4.53;;;;;;;;;;5102735;28;20193;-91
2021/08/16 01:34:12;;;;;;;4.95;4.55;;;;;;;;;;5101608;28;20201;-91
2021/08/16 01:36:40;;;;;;;10.43;4.57;;;;;;;;;;5102849;28;20194;-91
2021/08/16 01:39:07;;;;;;;6.45;4.63;;;;;;;;;;5100912;28;20206;-90
2021/08/16 01:41:33;;;;;;;5.28;4.15;;;;;;;;;;5102287;28;20678;-92
2021/08/16 01:44:02;;;;;;;6.53;4.40;;;;;;;;;;5100427;28;20206;-92
2021/08/16 01:46:28;;;;;;;4.60;4.30;;;;;;;;;;5101272;28;20227;-91
2021/08/16 01:48:55;;;;;;;7.88;4.95;;;;;;;;;;5101247;28;20212;-92
2021/08/16 01:51:22;;;;;;;5.82;4.82;;;;;;;;;;5099746;28;20233;-92
2021/08/16 01:53:49;;;;;;;4.93;4.45;;;;;;;;;;5101467;28;20267;-91
2021/08/16 01:56:19;;;;;;;5.00;4.57;;;;;;;;;;5100801;28;20251;-91
2021/08/16 01:58:45;;;;;;;10.25;5.07;;;;;;;;;;5100075;28;20174;-90
2021/08/16 02:01:13;;;;;;;8.00;5.10;;;;;;;;;;5100104;28;20197;-91
2021/08/16 02:03:40;;;;;;;5.35;4.60;;;;;;;;;;5100696;28;20549;-90
2021/08/16 02:06:06;;;;;;;6.30;5.05;;;;;;;;;;5100724;28;20178;-90
2021/08/16 02:08:33;;;;;;;5.05;4.60;;;;;;;;;;5103094;28;20212;-89
2021/08/16 02:11:00;;;;;;;4.50;4.20;;;;;;;;;;5102456;28;20211;-91
2021/08/16 02:13:26;;;;;;;6.22;4.80;;;;;;;;;;5102765;28;20189;-91
2021/08/16 02:15:53;;;;;;;4.88;4.47;;;;;;;;;;5103102;28;20729;-92
2021/08/16 02:18:21;;;;;;;5.28;4.25;;;;;;;;;;5103926;28;20185;-92
2021/08/16 02:20:48;;;;;;;6.70;4.35;;;;;;;;;;5103149;28;20197;-91
2021/08/16 02:23:15;;;;;;;6.80;4.38;;;;;;;;;;5103476;28;20699;-90
2021/08/16 02:25:41;;;;;;;5.05;4.55;;;;;;;;;;5104746;28;20590;-92
2021/08/16 02:28:08;;;;;;;5.20;4.70;;;;;;;;;;5120953;28;20232;-91
2021/08/16 02:30:35;;;;;;;11.23;5.38;;;;;;;;;;5118001;28;20201;-90
2021/08/16 02:33:01;;;;;;;7.85;4.25;;;;;;;;;;5120417;28;20212;-91
2021/08/16 02:35:29;;;;;;;4.97;4.47;;;;;;;;;;5102410;28;20250;-89
2021/08/16 02:37:56;;;;;;;4.38;4.05;;;;;;;;;;5119143;28;20181;-91
2021/08/16 02:40:23;;;;;;;5.55;4.13;;;;;;;;;;5100899;28;20223;-91
2021/08/16 02:42:49;;;;;;;5.38;4.20;;;;;;;;;;5100861;28;20200;-90
2021/08/16 02:45:16;;;;;;;4.97;4.00;;;;;;;;;;5101423;28;20193;-89
2021/08/16 02:47:44;;;;;;;5.05;3.97;;;;;;;;;;5100523;28;20269;-90
2021/08/16 02:50:10;;;;;;;5.55;4.15;;;;;;;;;;5099893;28;20247;-88
2021/08/16 02:52:38;;;;;;;5.43;3.92;;;;;;;;;;5118874;28;20196;-89
2021/08/16 02:55:06;;;;;;;8.13;4.03;;;;;;;;;;5117898;28;20208;-89
2021/08/16 02:57:33;;;;;;;5.97;4.30;;;;;;;;;;5099542;28;20208;-91
2021/08/16 02:59:59;;;;;;;4.40;3.40;;;;;;;;;;5099189;28;20269;-88
2021/08/16 03:02:26;;;;;;;5.97;3.80;;;;;;;;;;5098667;28;20197;-88
2021/08/16 03:04:53;;;;;;;4.85;3.92;;;;;;;;;;5116441;28;20230;-90
2021/08/16 03:07:20;;;;;;;4.68;4.10;;;;;;;;;;5095553;28;20233;-89
2021/08/16 03:09:48;;;;;;;3.90;3.60;;;;;;;;;;5096062;28;20221;-89
2021/08/16 03:12:14;;;;;;;4.00;3.67;;;;;;;;;;5092156;28;20221;-85
2021/08/16 03:14:41;;;;;;;7.22;3.95;;;;;;;;;;5091671;28;20190;-87
2021/08/16 03:17:08;;;;;;;6.55;3.70;;;;;;;;;;5091811;28;20726;-87
2021/08/16 03:19:35;;;;;;;5.78;3.97;;;;;;;;;;5091969;28;20572;-87
2021/08/16 03:22:01;;;;;;;6.60;3.80;;;;;;;;;;5093422;28;20210;-86
2021/08/16 03:24:30;;;;;;;4.63;3.50;;;;;;;;;;5093037;28;20213;-87
2021/08/16 03:26:58;;;;;;;9.02;3.60;;;;;;;;;;5091259;28;20208;-87
2021/08/16 03:29:24;;;;;;;4.15;3.35;;;;;;;;;;5093145;28;20229;-87
2021/08/16 03:31:51;;;;;;;9.68;3.58;;;;;;;;;;5092704;28;20553;-88
2021/08/16 03:34:18;;;;;;;7.28;3.50;;;;;;;;;;5094260;28;20206;-86
2021/08/16 03:36:45;;;;;;;4.82;3.47;;;;;;;;;;5093853;28;20197;-87
2021/08/16 03:39:11;;;;;;;11.38;3.90;;;;;;;;;;5093864;28;20557;-88
2021/08/16 03:41:38;;;;;;;4.43;3.60;;;;;;;;;;5094913;28;20215;-91
2021/08/16 03:44:06;;;;;;;5.45;3.88;;;;;;;;;;5094132;28;20236;-88
2021/08/16 03:46:33;;;;;;;7.80;3.30;;;;;;;;;;5092224;28;20621;-86
2021/08/16 03:48:59;;;;;;;5.25;3.30;;;;;;;;;;5092286;28;20240;-87
2021/08/16 03:51:26;;;;;;;7.18;3.20;;;;;;;;;;5093846;28;20233;-89
2021/08/16 03:53:53;;;;;;;6.78;3.58;;;;;;;;;;5095641;28;20178;-91
2021/08/16 03:56:20;;;;;;;3.97;2.85;;;;;;;;;;5093127;28;20601;-87
2021/08/16 03:58:46;;;;;;;6.82;3.90;;;;;;;;;;5092878;28;20616;-86
2021/08/16 04:01:14;;;;;;;6.57;3.60;;;;;;;;;;5092768;28;20692;-86
2021/08/16 04:03:43;;;;;;;5.75;3.30;;;;;;;;;;5094006;28;20523;-89
2021/08/16 04:06:10;;;;;;;5.85;3.60;;;;;;;;;;5093317;28;20267;-88
2021/08/16 04:08:39;;;;;;;6.13;3.55;;;;;;;;;;5094244;28;20242;-86
2021/08/16 04:11:05;;;;;;;5.70;3.33;;;;;;;;;;5095402;28;20212;-88
2021/08/16 04:13:32;;;;;;;4.05;3.63;;;;;;;;;;5097826;28;20545;-88
2021/08/16 04:15:59;;;;;;;6.47;4.03;;;;;;;;;;5116041;28;20579;-87
2021/08/16 04:18:27;;;;;;;9.73;3.85;;;;;;;;;;5094851;28;20189;-85
2021/08/16 04:20:53;;;;;;;4.05;3.50;;;;;;;;;;5094549;28;20214;-89
2021/08/16 04:23:20;;;;;;;6.22;3.72;;;;;;;;;;5098636;28;20205;-90
2021/08/16 04:25:47;;;;;;;4.20;3.53;;;;;;;;;;5095100;28;20211;-84
2021/08/16 04:28:13;;;;;;;4.43;4.03;;;;;;;;;;5094147;28;20236;-84
2021/08/16 04:30:40;;;;;;;4.13;3.22;;;;;;;;;;5094470;28;20560;-85
2021/08/16 04:33:07;;;;;;;3.55;3.00;;;;;;;;;;5093754;28;20205;-85
2021/08/16 04:35:35;;;;;;;3.40;3.10;;;;;;;;;;5112527;28;20393;-85
2021/08/16 04:38:02;;;;;;;3.50;3.05;;;;;;;;;;5093831;28;20219;-85
2021/08/16 04:40:29;;;;;;;4.95;3.05;;;;;;;;;;5095720;28;20222;-89
2021/08/16 04:42:56;;;;;;;3.42;2.67;;;;;;;;;;5113162;28;20174;-85
2021/08/16 04:45:23;;;;;;;5.03;3.00;;;;;;;;;;5113137;28;20224;-89
2021/08/16 04:47:52;;;;;;;5.72;2.92;;;;;;;;;;5095094;28;20190;-86
2021/08/16 04:50:18;;;;;;;4.32;2.75;;;;;;;;;;5095457;28;20234;-85
2021/08/16 04:52:46;;;;;;;3.17;2.70;;;;;;;;;;5095676;28;20193;-85
2021/08/16 04:55:13;;;;;;;3.45;2.67;;;;;;;;;;5115331;28;20237;-86
2021/08/16 04:57:40;;;;;;;3.97;2.63;;;;;;;;;;5097488;28;20185;-85
2021/08/16 05:00:08;;;;;;;3.58;2.53;;;;;;;;;;5097173;28;20205;-83
2021/08/16 05:02:35;;;;;;;2.75;2.47;;;;;;;;;;5115378;28;20716;-85
2021/08/16 05:05:07;;;;;;;3.08;2.63;;;;;;;;;;5098398;28;20193;-87
2021/08/16 05:07:34;;;;;;;2.33;2.13;;;;;;;;;;5115840;28;20229;-85
2021/08/16 05:10:03;;;;;;;3.80;2.70;;;;;;;;;;5115265;28;20268;-85
2021/08/16 05:12:29;;;;;;;3.83;2.30;;;;;;;;;;5097943;28;20197;-87
2021/08/16 05:14:56;;;;;;;3.22;2.50;;;;;;;;;;5096597;28;20189;-85
2021/08/16 05:17:23;;;;;;;4.00;2.25;;;;;;;;;;5115466;28;20173;-87
2021/08/16 05:19:49;;;;;;;4.78;2.90;;;;;;;;;;5115297;28;20564;-87
2021/08/16 05:22:16;;;;;;;3.15;2.38;;;;;;;;;;5115280;28;20247;-84
2021/08/16 05:24:43;;;;;;;5.03;2.70;;;;;;;;;;5097656;28;20185;-85
2021/08/16 05:27:11;;;;;;;5.95;2.40;;;;;;;;;;5097610;28;20189;-85
2021/08/16 05:29:37;;;;;;;5.30;2.50;;;;;;;;;;5097737;28;20248;-86
2021/08/16 05:32:04;;;;;;;3.22;2.50;;;;;;;;;;5098175;28;20193;-87
2021/08/16 05:34:31;;;;;;;2.45;2.25;;;;;;;;;;5097049;28;20223;-86
2021/08/16 05:36:58;;;;;;;3.75;2.20;;;;;;;;;;5115842;28;20209;-86
2021/08/16 05:39:24;;;;;;;4.15;2.22;;;;;;;;;;5115663;28;20177;-86
2021/08/16 05:41:51;;;;;;;3.25;2.42;;;;;;;;;;5096888;28;20205;-86
2021/08/16 05:44:19;;;;;;;3.47;2.50;;;;;;;;;;5114883;28;20212;-86
2021/08/16 05:46:45;;;;;;;2.67;2.47;;;;;;;;;;5114479;28;20216;-86
2021/08/16 05:49:12;;;;;;;3.20;2.45;;;;;;;;;;5115674;28;20221;-85
2021/08/16 05:51:39;;;;;;;3.55;2.22;;;;;;;;;;5115566;28;20704;-84
2021/08/16 05:54:06;;;;;;;6.13;2.00;;;;;;;;;;5097609;28;20205;-85
2021/08/16 05:56:32;;;;;;;3.15;2.33;;;;;;;;;;5097021;28;20215;-84
2021/08/16 05:58:59;;;;;;;7.10;2.45;;;;;;;;;;5096322;28;20191;-83
2021/08/16 06:01:27;;;;;;;6.10;2.40;;;;;;;;;;5114205;28;20205;-84
2021/08/16 06:03:53;;;;;;;3.90;2.25;;;;;;;;;;5095787;28;20197;-85
2021/08/16 06:06:20;;;;;;;4.75;2.55;;;;;;;;;;5096120;28;20189;-85
2021/08/16 06:08:47;;;;;;;3.58;3.10;;;;;;;;;;5114226;28;20252;-85
2021/08/16 06:11:13;;;;;;;5.22;2.88;;;;;;;;;;5095568;28;20236;-84
2021/08/16 06:13:40;;;;;;;5.72;2.83;;;;;;;;;;5114222;28;20222;-84
2021/08/16 06:16:07;;;;;;;4.65;2.42;;;;;;;;;;5114189;28;20178;-85
2021/08/16 06:18:35;;;;;;;6.95;2.50;;;;;;;;;;5113823;28;20244;-84
2021/08/16 06:21:01;;;;;;;4.05;2.28;;;;;;;;;;5095562;28;20250;-84
2021/08/16 06:23:28;;;;;;;5.13;2.72;;;;;;;;;;5112665;28;20181;-84
2021/08/16 06:25:55;;;;;;;6.10;2.55;;;;;;;;;;5095622;28;20201;-84
2021/08/16 06:28:21;;;;;;;6.35;2.65;;;;;;;;;;5097262;28;20424;-84
2021/08/16 06:30:48;;;;;;;4.93;2.70;;;;;;;;;;5096503;28;20238;-85
2021/08/16 06:33:15;;;;;;;2.92;2.13;;;;;;;;;;5114531;28;20177;-85
2021/08/16 06:35:43;;;;;;;4.75;2.70;;;;;;;;;;5097415;28;20189;-83
2021/08/16 06:38:20;;;;;;;5.28;2.55;;;;;;;;;;5095670;28;20224;-85
2021/08/16 06:40:47;;;;;;;6.32;2.60;;;;;;;;;;5095956;28;20695;-85
2021/08/16 06:43:13;;;;;;;6.35;2.75;;;;;;;;;;5095052;28;20205;-85
2021/08/16 06:45:40;;;;;;;4.82;2.15;;;;;;;;;;5113884;28;20565;-85
2021/08/16 06:48:07;;;;;;;3.63;2.05;;;;;;;;;;5095692;28;20193;-85
2021/08/16 06:50:34;;;;;;;2.72;2.20;;;;;;;;;;5095088;28;20765;-84
2021/08/16 06:53:02;;;;;;;3.58;2.40;;;;;;;;;;5113367;28;20232;-83
2021/08/16 06:55:28;;;;;;;5.07;2.53;;;;;;;;;;5095349;28;20193;-84
2021/08/16 06:57:55;;;;;;;6.60;2.50;;;;;;;;;;5113151;28;20212;-83
2021/08/16 07:00:22;;;;;;;5.35;2.33;;;;;;;;;;5113293;28;20234;-83
2021/08/16 07:02:48;;;;;;;3.60;2.08;;;;;;;;;;5094811;28;20287;-83
2021/08/16 07:05:15;;;;;;;6.28;2.13;;;;;;;;;;5094823;28;20224;-84
2021/08/16 07:07:42;;;;;;;4.40;2.10;;;;;;;;;;5091107;28;20634;-85
2021/08/16 07:10:11;;;;;;;6.72;2.30;;;;;;;;;;5093170;28;20709;-86
2021/08/16 07:12:37;;;;;;;4.60;2.20;;;;;;;;;;5093125;28;20248;-84
2021/08/16 07:15:04;;;;;;;5.93;2.25;;;;;;;;;;5092885;28;20213;-85
2021/08/16 07:17:31;;;;;;;2.97;2.15;;;;;;;;;;5092174;28;20233;-85
2021/08/16 07:19:58;;;;;;;2.90;2.08;;;;;;;;;;5091764;28;20202;-86
2021/08/16 07:22:25;;;;;;;5.85;2.33;;;;;;;;;;5092832;28;20210;-84
2021/08/16 07:24:51;;;;;;;4.53;2.40;;;;;;;;;;5092439;28;20590;-84
2021/08/16 07:27:19;;;;;;;4.70;2.03;;;;;;;;;;5091659;28;20223;-85
2021/08/16 07:29:46;;;;;;;3.30;1.88;;;;;;;;;;5091752;28;20221;-85
2021/08/16 07:32:13;;;;;;;4.80;1.90;;;;;;;;;;5091332;28;20231;-85
2021/08/16 07:34:39;;;;;;;6.13;2.10;;;;;;;;;;5092905;28;20178;-84
2021/08/16 07:37:08;;;;;;;7.55;2.30;;;;;;;;;;5090727;28;20480;-84
2021/08/16 07:39:34;;;;;;;3.50;1.75;;;;;;;;;;5091026;28;20225;-84
2021/08/16 07:42:01;;;;;;;3.13;2.30;;;;;;;;;;5090674;28;20666;-84
2021/08/16 07:44:29;;;;;;;3.45;2.30;;;;;;;;;;5090817;28;20259;-84
2021/08/16 07:46:59;;;;;;;3.40;2.30;;;;;;;;;;5091419;28;20219;-85
2021/08/16 07:49:26;;;;;;;10.35;2.33;;;;;;;;;;5090712;28;20287;-83
2021/08/16 07:51:52;;;;;;;2.85;1.75;;;;;;;;;;5091098;28;20206;-84
2021/08/16 07:54:19;;;;;;;4.85;2.15;;;;;;;;;;5090973;28;20190;-84
2021/08/16 07:56:50;;;;;;;6.72;2.22;;;;;;;;;;5090747;28;20229;-84
2021/08/16 07:59:17;;;;;;;5.30;2.10;;;;;;;;;;5092493;28;20206;-85
2021/08/16 08:01:45;;;;;;;2.25;2.10;;;;;;;;;;5090381;28;20197;-84
2021/08/16 08:04:12;;;;;;;4.78;2.50;;;;;;;;;;5091082;28;20229;-84
2021/08/16 08:06:39;;;;;;;6.40;2.20;;;;;;;;;;5090216;28;20259;-82
2021/08/16 08:09:05;;;;;;;5.50;2.30;;;;;;;;;;5092224;28;20178;-83
2021/08/16 08:11:32;;;;;;;6.18;2.38;;;;;;;;;;5090947;28;20206;-83
2021/08/16 08:13:59;;;;;;;4.78;2.30;;;;;;;;;;5090727;28;20291;-84
2021/08/16 08:16:25;;;;;;;5.68;2.40;;;;;;;;;;5092119;28;20206;-83
2021/08/16 08:18:53;;;;;;;3.15;2.08;;;;;;;;;;5094129;28;20175;-86
2021/08/16 08:21:20;;;;;;;4.40;1.98;;;;;;;;;;5092611;28;20220;-84
2021/08/16 08:23:46;;;;;;;2.83;1.70;;;;;;;;;;5093301;28;20219;-85
2021/08/16 08:26:13;;;;;;;4.70;1.90;;;;;;;;;;5092506;28;20254;-85
2021/08/16 08:28:40;;;;;;;2.40;1.65;;;;;;;;;;5093939;28;21011;-83
2021/08/16 08:31:06;;;;;;;4.20;2.08;;;;;;;;;;5096302;28;20252;-86
2021/08/16 08:33:33;;;;;;;3.35;1.55;;;;;;;;;;5096498;28;20193;-85
2021/08/16 08:36:01;;;;;;;4.45;1.95;;;;;;;;;;5096425;28;20201;-86
2021/08/16 08:38:28;;;;;;;3.45;1.67;;;;;;;;;;5098801;28;20688;-87
2021/08/16 08:40:57;;;;;;;5.68;1.92;;;;;;;;;;5098776;28;20202;-85
2021/08/16 08:43:24;;;;;;;2.47;2.13;;;;;;;;;;5097367;28;20206;-84
2021/08/16 08:45:54;;;;;;;5.45;1.95;;;;;;;;;;5097007;28;20174;-86
2021/08/16 08:48:20;;;;;;;3.78;1.73;;;;;;;;;;5097119;28;20210;-84
2021/08/16 08:50:48;;;;;;;2.47;1.80;;;;;;;;;;5096400;28;20275;-87
2021/08/16 08:53:17;;;;;;;5.15;2.10;;;;;;;;;;5096945;28;20197;-85
2021/08/16 08:55:44;;;;;;;4.82;2.10;;;;;;;;;;5097232;28;20541;-85
2021/08/16 08:58:13;;;;;;;2.15;1.95;;;;;;;;;;5096872;28;20217;-86
2021/08/16 09:00:39;;;;;;;3.75;2.08;;;;;;;;;;5096466;28;20213;-86
2021/08/16 09:03:06;;;;;;;2.67;1.80;;;;;;;;;;5096503;28;20733;-85
2021/08/16 09:05:35;;;;;;;5.03;1.85;;;;;;;;;;5095076;28;20224;-85
2021/08/16 09:08:02;;;;;;;4.50;1.98;;;;;;;;;;5077512;28;20703;-86
2021/08/16 09:10:30;;;;;;;2.33;2.03;;;;;;;;;;5074331;28;20237;-85
2021/08/16 09:12:57;;;;;;;2.85;2.17;;;;;;;;;;5074628;28;20202;-85
2021/08/16 09:15:24;;;;;;;5.57;2.20;;;;;;;;;;5074608;28;20693;-85
2021/08/16 09:17:51;;;;;;;2.88;1.90;;;;;;;;;;5075924;28;20179;-83
2021/08/16 09:20:19;;;;;;;2.13;1.85;;;;;;;;;;5075535;28;20550;-86
2021/08/16 09:22:57;;;;;;;2.70;1.77;;;;;;;;;;5075151;28;20210;-86
2021/08/16 09:25:24;;;;;;;2.67;2.13;;;;;;;;;;5074150;28;20251;-84
2021/08/16 09:27:52;;;;;;;2.45;1.83;;;;;;;;;;5074504;28;20210;-83
2021/08/16 09:30:28;;;;;;;3.95;2.05;;;;;;;;;;5073156;28;20246;-85
2021/08/16 09:32:55;;;;;;;4.95;2.10;;;;;;;;;;5075397;28;20746;-86
2021/08/16 09:35:22;;;;;;;3.85;1.83;;;;;;;;;;5075348;28;20211;-84
2021/08/16 09:37:53;;;;;;;2.75;1.98;;;;;;;;;;5074157;28;20739;-86
2021/08/16 09:40:20;;;;;;;3.60;2.13;;;;;;;;;;5073356;28;20739;-84
2021/08/16 09:42:47;;;;;;;2.17;1.55;;;;;;;;;;5073120;28;20239;-84
2021/08/16 09:45:27;;;;;;;3.65;1.80;;;;;;;;;;5073370;28;20605;-84
2021/08/16 09:47:58;;;;;;;6.53;1.80;;;;;;;;;;5073338;28;20249;-84
2021/08/16 09:50:24;;;;;;;3.75;1.70;;;;;;;;;;5073080;28;20252;-84
2021/08/16 09:52:51;;;;;;;4.20;1.90;;;;;;;;;;5073379;28;20198;-84
2021/08/16 09:55:18;;;;;;;4.22;1.98;;;;;;;;;;5073851;28;20752;-84
2021/08/16 09:57:44;;;;;;;4.40;1.85;;;;;;;;;;5074642;28;20708;-83
2021/08/16 10:00:11;;;;;;;3.92;1.73;;;;;;;;;;5073326;28;20573;-83
2021/08/16 10:02:40;;;;;;;2.25;1.70;;;;;;;;;;5073162;28;20669;-86
2021/08/16 10:05:07;;;;;;;6.88;1.80;;;;;;;;;;5072435;28;20206;-84
2021/08/16 10:07:35;;;;;;;3.17;1.77;;;;;;;;;;5099223;28;20233;-83
2021/08/16 10:10:02;;;;;;;5.32;1.58;;;;;;;;;;5117180;28;20196;-85
2021/08/16 10:12:31;;;;;;;1.90;1.67;;;;;;;;;;5116364;28;20547;-85
2021/08/16 10:14:59;;;;;;;1.80;1.70;;;;;;;;;;5115333;28;20258;-85
2021/08/16 10:17:28;;;;;;;4.10;2.15;;;;;;;;;;5118012;28;20213;-88
2021/08/16 10:19:58;;;;;;;2.95;1.48;;;;;;;;;;5101536;28;20197;-88
2021/08/16 10:22:25;;;;;;;5.25;2.42;;;;;;;;;;5101911;28;20200;-92
2021/08/16 10:24:51;;;;;;;5.93;2.38;;;;;;;;;;5100601;28;20258;-88
2021/08/16 10:27:18;;;;;;;4.25;1.85;;;;;;;;;;5099962;28;20197;-87
2021/08/16 10:29:45;;;;;;;6.40;1.92;;;;;;;;;;5099682;28;20221;-88
2021/08/16 10:32:18;;;;;;;2.15;1.77;;;;;;;;;;5101653;28;20205;-87
2021/08/16 10:34:44;;;;;;;1.88;1.58;;;;;;;;;;5101566;28;20193;-89
2021/08/16 10:37:15;;;;;;;3.05;1.80;;;;;;;;;;5102445;28;20208;-93
2021/08/16 10:39:42;;;;;;;3.55;2.28;;;;;;;;;;5101930;28;20190;-87
2021/08/16 10:42:10;;;;;;;5.35;1.90;;;;;;;;;;5118843;28;20205;-86
2021/08/16 10:44:37;;;;;;;2.47;1.75;;;;;;;;;;5097414;28;20242;-85
2021/08/16 10:47:04;;;;;;;1.98;1.80;;;;;;;;;;5097055;28;20205;-87
2021/08/16 10:49:31;;;;;;;2.05;1.77;;;;;;;;;;5099286;28;20189;-86
2021/08/16 10:51:58;;;;;;;4.80;1.92;;;;;;;;;;5116168;28;20217;-87
2021/08/16 10:54:27;;;;;;;2.50;1.63;;;;;;;;;;5097520;28;20729;-85
2021/08/16 10:56:54;;;;;;;2.53;1.60;;;;;;;;;;5096940;28;20193;-84
2021/08/16 10:59:21;;;;;;;4.75;1.75;;;;;;;;;;5096530;28;20205;-84
2021/08/16 11:01:48;;;;;;;1.77;1.60;;;;;;;;;;5098011;28;20725;-87
2021/08/16 11:04:16;;;;;;;2.33;1.77;;;;;;;;;;5100726;28;20204;-87
2021/08/16 11:06:52;;;;;;;2.00;1.60;;;;;;;;;;5094195;28;20229;-82
2021/08/16 11:09:23;;;;;;;2.38;1.70;;;;;;;;;;5096900;28;20243;-89
2021/08/16 11:11:57;;;;;;;3.05;1.60;;;;;;;;;;5096257;28;20239;-88
2021/08/16 11:14:24;;;;;;;3.97;1.80;;;;;;;;;;5096930;28;20198;-90
2021/08/16 11:16:51;;;;;;;1.70;1.60;;;;;;;;;;5098146;28;20209;-89
2021/08/16 11:19:18;;;;;;;4.03;1.60;;;;;;;;;;5096774;28;20201;-86
2021/08/16 11:21:52;;;;;;;1.85;1.42;;;;;;;;;;5097771;28;20178;-88
2021/08/16 11:24:26;;;;;;;2.40;1.88;;;;;;;;;;5097733;28;20205;-89
2021/08/16 11:26:54;;;;;;;3.88;1.90;;;;;;;;;;5095731;28;20186;-87
2021/08/16 11:29:22;;;;;;;2.05;1.67;;;;;;;;;;5098252;28;20205;-89
2021/08/16 11:31:51;;;;;;;3.15;1.60;;;;;;;;;;5097644;28;20749;-88
2021/08/16 11:34:18;;;;;;;2.33;1.80;;;;;;;;;;5099191;28;20190;-89
2021/08/16 11:36:44;;;;;;;1.83;1.70;;;;;;;;;;5098064;28;20204;-88
2021/08/16 11:39:11;;;;;;;3.53;2.10;;;;;;;;;;5098362;28;20194;-91
2021/08/16 11:41:38;;;;;;;2.95;1.70;;;;;;;;;;5096135;28;20194;-86
2021/08/16 11:44:15;;;;;;;2.10;1.73;;;;;;;;;;5094649;28;20236;-87
2021/08/16 11:46:43;;;;;;;3.08;1.42;;;;;;;;;;5095675;28;20202;-88
2021/08/16 11:49:11;;;;;;;2.45;1.90;;;;;;;;;;5093995;28;20223;-85
2021/08/16 11:51:40;;;;;;;6.13;1.83;;;;;;;;;;5095252;28;20248;-86
2021/08/16 11:54:07;;;;;;;3.65;1.58;;;;;;;;;;5092141;28;20624;-88
2021/08/16 11:56:34;;;;;;;6.22;1.85;;;;;;;;;;5093985;28;20263;-85
2021/08/16 11:59:00;;;;;;;1.85;1.50;;;;;;;;;;5092726;28;20189;-85
2021/08/16 12:01:29;;;;;;;7.00;2.00;;;;;;;;;;5093723;28;20201;-84
2021/08/16 12:04:00;;;;;;;3.03;1.90;;;;;;;;;;5093774;28;20564;-85
2021/08/16 12:06:28;;;;;;;2.78;1.90;;;;;;;;;;5095791;28;20217;-86
2021/08/16 12:09:03;;;;;;;3.65;1.90;;;;;;;;;;5113941;28;20213;-86
2021/08/16 12:11:30;;;;;;;2.08;1.88;;;;;;;;;;5095124;28;20246;-86
2021/08/16 12:13:57;;;;;;;3.17;1.58;;;;;;;;;;5113793;28;20185;-86
2021/08/16 12:16:29;;;;;;;2.15;1.70;;;;;;;;;;5094955;28;20238;-84
2021/08/16 12:18:57;;;;;;;2.47;2.00;;;;;;;;;;5112907;28;20247;-83
2021/08/16 12:21:24;;;;;;;2.85;1.70;;;;;;;;;;5094774;28;20261;-85
2021/08/16 12:23:54;;;;;;;6.57;1.90;;;;;;;;;;5112811;28;20211;-86
2021/08/16 12:26:27;;;;;;;4.75;2.00;;;;;;;;;;5113047;28;20205;-84
2021/08/16 12:28:54;;;;;;;3.17;1.95;;;;;;;;;;5094065;28;20265;-86
2021/08/16 12:31:24;;;;;;;4.20;1.95;;;;;;;;;;5112869;28;20217;-83
2021/08/16 12:33:59;;;;;;;7.82;2.13;;;;;;;;;;5112549;28;20216;-83
2021/08/16 12:36:27;;;;;;;2.90;1.80;;;;;;;;;;5112387;28;20219;-85
2021/08/16 12:39:04;;;;;;;4.10;2.00;;;;;;;;;;5095311;28;20189;-85
2021/08/16 12:41:32;;;;;;;2.45;1.75;;;;;;;;;;5095051;28;20220;-84
2021/08/16 12:43:59;;;;;;;2.80;1.70;;;;;;;;;;5093501;28;20235;-85
2021/08/16 12:46:30;;;;;;;3.05;2.17;;;;;;;;;;5094898;28;20274;-85
2021/08/16 12:48:57;;;;;;;6.57;1.75;;;;;;;;;;5094100;28;20201;-85
2021/08/16 12:51:25;;;;;;;5.43;1.80;;;;;;;;;;5112685;28;20241;-86
2021/08/16 12:53:52;;;;;;;2.42;1.67;;;;;;;;;;5094845;28;20673;-85
2021/08/16 12:56:19;;;;;;;4.95;1.90;;;;;;;;;;5093976;28;20641;-84
2021/08/16 12:58:45;;;;;;;4.05;1.83;;;;;;;;;;5093684;28;20200;-82
2021/08/16 13:01:18;;;;;;;4.32;1.98;;;;;;;;;;5111764;28;20212;-81
2021/08/16 13:03:44;;;;;;;2.42;1.70;;;;;;;;;;5092310;28;20262;-83
2021/08/16 13:06:11;;;;;;;2.63;2.10;;;;;;;;;;5093603;28;20193;-83
2021/08/16 13:08:41;;;;;;;2.13;1.92;;;;;;;;;;5113526;28;20177;-85
2021/08/16 13:11:07;;;;;;;5.85;1.98;;;;;;;;;;5095741;28;20197;-86
2021/08/16 13:13:34;;;;;;;2.28;1.88;;;;;;;;;;5093875;28;20224;-83
2021/08/16 13:16:01;;;;;;;2.63;1.88;;;;;;;;;;5096272;28;20672;-85
2021/08/16 13:18:27;;;;;;;3.22;1.77;;;;;;;;;;5114244;28;20201;-85
2021/08/16 13:20:56;;;;;;;2.60;1.95;;;;;;;;;;5096206;28;20915;-85
2021/08/16 13:23:22;;;;;;;1.67;1.58;;;;;;;;;;5098159;28;20193;-84
2021/08/16 13:25:50;;;;;;;4.38;1.95;;;;;;;;;;5114936;28;20227;-85
2021/08/16 13:28:17;;;;;;;4.13;1.98;;;;;;;;;;5114668;28;20236;-83
2021/08/16 13:30:44;;;;;;;2.90;1.92;;;;;;;;;;5096490;28;20217;-84
2021/08/16 13:33:10;;;;;;;4.50;1.83;;;;;;;;;;5096947;28;20262;-84
2021/08/16 13:35:37;;;;;;;2.00;1.80;;;;;;;;;;5096123;28;20228;-83
2021/08/16 13:38:04;;;;;;;2.78;1.75;;;;;;;;;;5114529;28;20240;-85
2021/08/16 13:40:32;;;;;;;3.50;1.88;;;;;;;;;;5096184;28;20213;-85
2021/08/16 13:43:01;;;;;;;2.38;1.88;;;;;;;;;;5096530;28;20197;-85
2021/08/16 13:45:27;;;;;;;3.05;1.80;;;;;;;;;;5114284;28;20216;-85
2021/08/16 13:47:54;;;;;;;2.20;1.80;;;;;;;;;;5114458;28;20550;-85
2021/08/16 13:50:21;;;;;;;5.03;1.92;;;;;;;;;;5095698;28;20253;-85
2021/08/16 13:52:48;;;;;;;2.22;1.80;;;;;;;;;;5096111;28;20240;-85
2021/08/16 13:55:14;;;;;;;2.95;1.92;;;;;;;;;;5096168;28;20201;-86
2021/08/16 13:57:41;;;;;;;2.88;2.10;;;;;;;;;;5115113;28;20213;-86
2021/08/16 14:00:09;;;;;;;1.65;1.55;;;;;;;;;;5096304;28;20196;-86
2021/08/16 14:02:36;;;;;;;4.43;1.80;;;;;;;;;;5114652;28;20240;-85
2021/08/16 14:05:03;;;;;;;3.88;1.92;;;;;;;;;;5093632;28;20194;-85
2021/08/16 14:07:29;;;;;;;3.88;2.05;;;;;;;;;;5094553;28;20225;-86
2021/08/16 14:09:56;;;;;;;6.03;1.88;;;;;;;;;;5077260;28;20201;-85
2021/08/16 14:12:23;;;;;;;3.08;1.95;;;;;;;;;;5078461;28;20217;-87
2021/08/16 14:14:49;;;;;;;4.15;2.05;;;;;;;;;;5096508;28;20206;-85
2021/08/16 14:17:17;;;;;;;3.80;2.03;;;;;;;;;;5076807;28;20186;-88
2021/08/16 14:19:44;;;;;;;2.78;1.95;;;;;;;;;;5077153;28;20730;-86
2021/08/16 14:22:11;;;;;;;3.38;1.92;;;;;;;;;;5077523;28;20197;-88
2021/08/16 14:24:38;;;;;;;2.72;1.92;;;;;;;;;;5077378;28;20232;-86
2021/08/16 14:27:05;;;;;;;2.63;2.00;;;;;;;;;;5079219;28;20204;-88
2021/08/16 14:29:32;;;;;;;2.28;1.67;;;;;;;;;;5078489;28;20201;-88
2021/08/16 14:31:59;;;;;;;2.10;1.70;;;;;;;;;;5078777;28;20193;-89
2021/08/16 14:34:27;;;;;;;5.25;1.70;;;;;;;;;;5078845;28;20201;-85
2021/08/16 14:36:53;;;;;;;4.97;1.75;;;;;;;;;;5078238;28;20201;-88
2021/08/16 14:39:20;;;;;;;4.72;2.00;;;;;;;;;;5078910;28;20202;-87
2021/08/16 14:41:47;;;;;;;1.65;1.55;;;;;;;;;;5077909;28;20670;-88
2021/08/16 14:44:13;;;;;;;3.88;2.25;;;;;;;;;;5095739;28;20209;-88
2021/08/16 14:46:40;;;;;;;2.78;1.90;;;;;;;;;;5096396;28;20182;-88
2021/08/16 14:49:06;;;;;;;2.22;1.55;;;;;;;;;;5079248;28;20198;-88
2021/08/16 14:51:35;;;;;;;4.57;1.70;;;;;;;;;;5079448;28;20275;-90